createdAt,value
2022-11-28T00:01:24.017Z,0.94
2022-11-28T00:03:50.571Z,0.87
2022-11-28T00:06:18.084Z,0.96
2022-11-28T00:08:45.272Z,0.88
2022-11-28T00:11:13.724Z,0.93
2022-11-28T00:13:40.505Z,0.82
2022-11-28T00:16:09.328Z,1.00
2022-11-28T00:18:35.931Z,0.83
2022-11-28T00:21:08.298Z,0.98
2022-11-28T00:23:34.773Z,0.99
2022-11-28T00:26:06.088Z,1.01
2022-11-28T00:28:44.868Z,1.13
2022-11-28T00:31:16.163Z,1.01
2022-11-28T00:33:42.866Z,1.26
2022-11-28T00:36:34.360Z,1.31
2022-11-28T00:39:00.804Z,1.42
2022-11-28T00:41:29.139Z,1.16
2022-11-28T00:43:55.908Z,1.14
2022-11-28T00:46:23.333Z,1.30
2022-11-28T00:48:50.344Z,1.28
2022-11-28T00:51:23.310Z,1.23
2022-11-28T00:53:57.736Z,1.03
2022-11-28T00:56:30.857Z,1.16
2022-11-28T00:58:57.551Z,0.99
2022-11-28T01:01:27.929Z,1.30
2022-11-28T01:04:08.093Z,1.37
2022-11-28T01:06:40.348Z,1.08
2022-11-28T01:09:16.671Z,1.42
2022-11-28T01:11:43.627Z,0.82
2022-11-28T01:14:11.989Z,1.08
2022-11-28T01:16:58.867Z,1.87
2022-11-28T01:19:25.292Z,1.26
2022-11-28T01:21:51.689Z,1.42
2022-11-28T01:25:07.126Z,1.57
2022-11-28T01:27:33.535Z,1.19
2022-11-28T01:29:59.957Z,1.23
2022-11-28T01:32:26.341Z,0.95
2022-11-28T01:34:52.803Z,0.97
2022-11-28T01:37:19.241Z,1.12
2022-11-28T01:39:45.687Z,1.51
2022-11-28T01:42:21.165Z,1.22
2022-11-28T01:44:47.758Z,1.31
2022-11-28T01:47:17.762Z,1.30
2022-11-28T01:49:47.094Z,1.42
2022-11-28T01:52:17.275Z,1.39
2022-11-28T01:55:15.490Z,1.41
2022-11-28T01:57:42.680Z,1.21
2022-11-28T02:00:12.347Z,1.31
2022-11-28T02:02:40.812Z,1.39
2022-11-28T02:05:08.171Z,1.28
2022-11-28T02:07:35.916Z,1.37
2022-11-28T02:10:05.689Z,1.44
2022-11-28T02:12:51.891Z,1.62
2022-11-28T02:15:36.690Z,2.07
2022-11-28T02:18:23.004Z,1.73
2022-11-28T02:20:55.490Z,1.58
2022-11-28T02:23:57.449Z,1.85
2022-11-28T02:26:45.191Z,1.34
2022-11-28T02:29:39.990Z,1.39
2022-11-28T02:32:16.337Z,1.38
2022-11-28T02:34:56.862Z,1.56
2022-11-28T02:37:26.834Z,1.49
2022-11-28T02:40:27.351Z,1.53
2022-11-28T02:43:11.695Z,1.51
2022-11-28T02:45:53.172Z,1.67
2022-11-28T02:48:49.900Z,1.65
2022-11-28T02:51:24.611Z,1.73
2022-11-28T02:53:55.348Z,1.86
2022-11-28T02:56:24.789Z,2.01
2022-11-28T02:58:51.288Z,1.93
2022-11-28T03:01:44.311Z,1.76
2022-11-28T03:04:31.655Z,1.92
2022-11-28T03:07:39.295Z,2.02
2022-11-28T03:10:43.137Z,2.07
2022-11-28T03:13:41.175Z,1.91
2022-11-28T03:16:07.771Z,1.68
2022-11-28T03:18:58.058Z,1.78
2022-11-28T03:21:38.521Z,1.73
2022-11-28T03:24:13.496Z,1.57
2022-11-28T03:26:51.353Z,1.45
2022-11-28T03:29:23.742Z,1.63
2022-11-28T03:31:59.066Z,1.61
2022-11-28T03:34:36.975Z,1.54
2022-11-28T03:37:10.161Z,1.64
2022-11-28T03:39:40.227Z,1.59
2022-11-28T03:42:24.533Z,1.44
2022-11-28T03:45:02.730Z,1.65
2022-11-28T03:47:35.076Z,1.63
2022-11-28T03:50:08.321Z,1.65
2022-11-28T03:52:48.883Z,1.58
2022-11-28T03:55:32.632Z,1.58
2022-11-28T03:58:30.096Z,1.83
2022-11-28T04:01:30.541Z,2.02
2022-11-28T04:04:10.029Z,1.86
2022-11-28T04:06:43.224Z,1.60
2022-11-28T04:09:18.852Z,1.72
2022-11-28T04:11:51.839Z,1.66
2022-11-28T04:14:18.181Z,1.66
2022-11-28T04:16:53.617Z,1.58
2022-11-28T04:19:28.918Z,1.60
2022-11-28T04:22:14.553Z,1.90
2022-11-28T04:24:55.020Z,1.62
2022-11-28T04:27:31.861Z,1.70
2022-11-28T04:30:02.042Z,1.58
2022-11-28T04:33:07.537Z,1.70
2022-11-28T04:35:38.790Z,1.53
2022-11-28T04:38:09.217Z,1.69
2022-11-28T04:41:07.780Z,1.81
2022-11-28T04:43:39.035Z,1.57
2022-11-28T04:46:12.585Z,1.78
2022-11-28T04:48:39.024Z,1.87
2022-11-28T04:51:23.137Z,2.18
2022-11-28T04:53:54.011Z,2.08
2022-11-28T04:57:02.409Z,1.97
2022-11-28T04:59:31.546Z,1.89
2022-11-28T05:02:02.706Z,2.02
2022-11-28T05:04:36.702Z,2.20
2022-11-28T05:07:05.953Z,2.07
2022-11-28T05:09:32.536Z,2.12
2022-11-28T05:12:09.181Z,2.34
2022-11-28T05:14:35.714Z,2.23
2022-11-28T05:17:02.253Z,2.15
2022-11-28T05:19:30.704Z,2.18
2022-11-28T05:22:08.349Z,2.03
2022-11-28T05:24:36.796Z,1.99
2022-11-28T05:27:03.506Z,2.04
2022-11-28T05:29:30.210Z,2.19
2022-11-28T05:32:00.761Z,2.26
2022-11-28T05:34:33.139Z,2.43
2022-11-28T05:36:59.639Z,2.14
2022-11-28T05:39:27.170Z,2.10
2022-11-28T05:42:17.720Z,2.10
2022-11-28T05:45:14.165Z,1.86
2022-11-28T05:47:40.572Z,2.01
2022-11-28T05:50:08.040Z,2.18
2022-11-28T05:52:34.595Z,1.98
2022-11-28T05:55:01.599Z,2.11
2022-11-28T05:57:29.996Z,2.29
2022-11-28T06:00:12.245Z,2.25
2022-11-28T06:02:38.852Z,2.01
2022-11-28T06:05:27.249Z,2.07
2022-11-28T06:07:52.300Z,2.08
2022-11-28T06:10:19.191Z,2.10
2022-11-28T06:12:45.595Z,2.26
2022-11-28T06:15:12.170Z,2.26
2022-11-28T06:17:38.638Z,2.10
2022-11-28T06:20:05.907Z,2.03
2022-11-28T06:22:32.384Z,2.16
2022-11-28T06:24:58.790Z,2.14
2022-11-28T06:27:34.828Z,2.13
2022-11-28T06:30:01.243Z,1.96
2022-11-28T06:32:27.657Z,2.09
2022-11-28T06:34:54.053Z,2.12
2022-11-28T06:37:26.660Z,2.08
2022-11-28T06:39:53.443Z,2.19
2022-11-28T06:42:19.984Z,2.15
2022-11-28T06:45:14.274Z,2.07
2022-11-28T06:47:48.880Z,2.09
2022-11-28T06:50:15.669Z,2.04
2022-11-28T06:52:55.806Z,1.99
2022-11-28T06:55:29.761Z,2.09
2022-11-28T06:57:56.236Z,2.11
2022-11-28T07:00:35.113Z,2.05
2022-11-28T07:03:04.707Z,2.17
2022-11-28T07:05:31.153Z,2.09
2022-11-28T07:07:58.349Z,2.22
2022-11-28T07:10:25.762Z,2.29
2022-11-28T07:13:02.410Z,2.52
2022-11-28T07:15:31.702Z,2.33
2022-11-28T07:18:04.457Z,2.43
2022-11-28T07:20:30.864Z,2.40
2022-11-28T07:22:57.292Z,2.37
2022-11-28T07:25:23.702Z,2.33
2022-11-28T07:27:50.122Z,2.45
2022-11-28T07:30:16.682Z,2.60
2022-11-28T07:32:43.093Z,2.50
2022-11-28T07:35:29.758Z,2.65
2022-11-28T07:37:56.207Z,2.68
2022-11-28T07:40:22.859Z,2.51
2022-11-28T07:42:49.317Z,2.59
2022-11-28T07:45:53.471Z,2.50
2022-11-28T07:48:16.171Z,2.56
2022-11-28T07:50:42.574Z,2.56
2022-11-28T07:53:08.974Z,2.61
2022-11-28T07:55:36.371Z,2.72
2022-11-28T07:58:05.894Z,2.72
2022-11-28T08:00:33.358Z,2.73
2022-11-28T08:02:59.876Z,2.84
2022-11-28T08:05:26.295Z,2.77
2022-11-28T08:07:52.735Z,2.82
2022-11-28T08:10:19.582Z,3.08
2022-11-28T08:12:46.012Z,3.03
2022-11-28T08:15:12.423Z,2.95
2022-11-28T08:17:38.854Z,3.03
2022-11-28T08:20:05.976Z,3.11
2022-11-28T08:22:32.421Z,3.20
2022-11-28T08:24:58.822Z,3.18
2022-11-28T08:27:25.264Z,3.41
2022-11-28T08:29:53.511Z,3.41
2022-11-28T08:32:20.448Z,3.32
2022-11-28T08:34:46.870Z,3.53
2022-11-28T08:37:13.290Z,3.54
2022-11-28T08:39:39.696Z,3.30
2022-11-28T08:42:06.169Z,3.17
2022-11-28T08:44:32.847Z,3.30
2022-11-28T08:46:59.258Z,3.48
2022-11-28T08:49:53.804Z,3.80
2022-11-28T08:52:20.223Z,3.66
2022-11-28T08:54:46.668Z,3.72
2022-11-28T08:57:13.089Z,3.78
2022-11-28T08:59:39.550Z,3.92
2022-11-28T09:02:06.542Z,4.04
2022-11-28T09:04:33.988Z,4.17
2022-11-28T09:07:00.477Z,4.16
2022-11-28T09:09:32.752Z,4.13
2022-11-28T09:11:59.461Z,4.37
2022-11-28T09:14:26.836Z,4.36
2022-11-28T09:16:53.442Z,4.27
2022-11-28T09:19:19.959Z,4.56
2022-11-28T09:21:57.504Z,4.51
2022-11-28T09:24:24.559Z,4.42
2022-11-28T09:26:50.969Z,4.59
2022-11-28T09:29:17.375Z,4.86
2022-11-28T09:31:47.308Z,4.75
2022-11-28T09:34:14.232Z,4.96
2022-11-28T09:36:40.864Z,5.25
2022-11-28T09:39:07.626Z,5.08
2022-11-28T09:41:49.211Z,5.39
2022-11-28T09:44:22.426Z,5.35
2022-11-28T09:46:53.477Z,5.47
2022-11-28T09:50:06.963Z,5.67
2022-11-28T09:53:10.788Z,5.67
2022-11-28T09:55:52.160Z,5.62
2022-11-28T09:58:43.397Z,5.63
2022-11-28T10:01:22.917Z,5.79
2022-11-28T10:04:12.752Z,5.89
2022-11-28T10:06:52.819Z,5.98
2022-11-28T10:09:51.258Z,6.00
2022-11-28T10:12:45.541Z,6.26
2022-11-28T10:15:39.925Z,6.35
2022-11-28T10:18:41.730Z,6.46
2022-11-28T10:21:31.216Z,6.69
2022-11-28T10:24:02.152Z,6.42
2022-11-28T10:26:36.086Z,6.57
2022-11-28T10:29:11.611Z,6.63
2022-11-28T10:31:44.072Z,6.68
2022-11-28T10:34:24.676Z,6.68
2022-11-28T10:37:00.763Z,6.93
2022-11-28T10:39:27.866Z,7.20
2022-11-28T10:42:13.650Z,7.23
2022-11-28T10:45:06.721Z,7.24
2022-11-28T10:47:51.451Z,6.76
2022-11-28T10:50:32.543Z,6.86
2022-11-28T10:53:15.380Z,7.04
2022-11-28T10:55:54.286Z,7.24
2022-11-28T10:58:29.719Z,7.05
2022-11-28T11:00:57.940Z,7.08
2022-11-28T11:03:37.999Z,7.23
2022-11-28T11:06:04.594Z,7.20
2022-11-28T11:08:37.165Z,7.25
2022-11-28T11:11:24.396Z,7.29
2022-11-28T11:14:00.422Z,7.44
2022-11-28T11:16:56.861Z,7.66
2022-11-28T11:19:35.999Z,7.67
2022-11-28T11:22:20.694Z,7.74
2022-11-28T11:25:20.403Z,7.78
2022-11-28T11:27:58.362Z,7.61
2022-11-28T11:30:34.729Z,7.75
2022-11-28T11:33:02.040Z,7.78
2022-11-28T11:35:32.983Z,7.72
2022-11-28T11:38:37.785Z,7.97
2022-11-28T11:41:26.681Z,8.03
2022-11-28T11:43:53.103Z,7.93
2022-11-28T11:46:19.552Z,8.00
2022-11-28T11:48:48.050Z,8.36
2022-11-28T11:51:39.413Z,8.30
2022-11-28T11:54:16.503Z,8.51
2022-11-28T11:56:46.647Z,8.35
2022-11-28T11:59:18.026Z,8.29
2022-11-28T12:01:46.705Z,8.62
2022-11-28T12:04:43.919Z,8.67
2022-11-28T12:07:18.681Z,8.43
2022-11-28T12:09:48.042Z,8.41
2022-11-28T12:12:25.074Z,8.59
2022-11-28T12:14:57.813Z,8.42
2022-11-28T12:17:53.411Z,8.40
2022-11-28T12:20:29.527Z,8.31
2022-11-28T12:23:39.200Z,8.33
2022-11-28T12:26:30.257Z,8.32
2022-11-28T12:29:03.514Z,8.46
2022-11-28T12:31:56.593Z,8.58
2022-11-28T12:34:42.701Z,8.60
2022-11-28T12:37:09.028Z,8.41
2022-11-28T12:39:50.432Z,8.46
2022-11-28T12:42:47.443Z,8.22
2022-11-28T12:45:41.910Z,8.27
2022-11-28T12:48:23.946Z,8.24
2022-11-28T12:51:07.473Z,8.26
2022-11-28T12:54:00.265Z,8.25
2022-11-28T12:56:45.076Z,8.32
2022-11-28T12:59:30.529Z,8.40
2022-11-28T13:02:15.222Z,8.30
2022-11-28T13:05:03.604Z,8.20
2022-11-28T13:07:52.108Z,8.17
2022-11-28T13:10:31.804Z,8.23
2022-11-28T13:13:03.237Z,8.14
2022-11-28T13:16:06.697Z,8.37
2022-11-28T13:18:40.736Z,8.30
2022-11-28T13:21:12.925Z,8.30
2022-11-28T13:23:53.496Z,8.21
2022-11-28T13:26:45.930Z,8.36
2022-11-28T13:29:52.092Z,8.33
2022-11-28T13:32:59.256Z,8.33
2022-11-28T13:35:30.434Z,8.15
2022-11-28T13:38:35.974Z,8.28
2022-11-28T13:45:07.167Z,8.07
2022-11-28T13:47:37.897Z,8.05
2022-11-28T13:51:01.379Z,8.18
2022-11-28T13:53:35.740Z,8.01
2022-11-28T13:56:08.185Z,8.15
2022-11-28T13:58:52.811Z,7.96
2022-11-28T14:01:44.627Z,8.01
2022-11-28T14:04:15.251Z,8.12
2022-11-28T14:06:46.353Z,8.10
2022-11-28T14:09:40.043Z,8.05
2022-11-28T14:12:31.198Z,8.06
2022-11-28T14:15:38.387Z,8.10
2022-11-28T14:19:02.039Z,8.04
2022-11-28T14:22:16.199Z,7.84
2022-11-28T14:25:04.426Z,7.79
2022-11-28T14:27:34.622Z,7.75
2022-11-28T14:30:34.353Z,7.77
2022-11-28T14:33:36.817Z,7.90
2022-11-28T14:36:41.744Z,7.96
2022-11-28T14:39:15.402Z,7.97
2022-11-28T14:42:09.752Z,7.98
2022-11-28T14:44:50.527Z,7.78
2022-11-28T14:47:42.722Z,7.69
2022-11-28T14:50:13.275Z,7.61
2022-11-28T14:52:48.246Z,7.66
2022-11-28T14:55:22.492Z,7.40
2022-11-28T14:58:05.186Z,7.26
2022-11-28T15:00:49.359Z,7.06
2022-11-28T15:03:19.663Z,6.99
2022-11-28T15:06:02.922Z,6.84
2022-11-28T15:08:45.513Z,6.85
2022-11-28T15:11:25.635Z,6.79
2022-11-28T15:14:25.640Z,6.75
2022-11-28T15:17:06.807Z,6.53
2022-11-28T15:19:43.126Z,6.58
2022-11-28T15:22:41.905Z,6.50
2022-11-28T15:25:22.121Z,6.34
2022-11-28T15:27:48.978Z,6.15
2022-11-28T15:30:26.278Z,5.97
2022-11-28T15:33:00.021Z,6.21
2022-11-28T15:35:27.841Z,6.02
2022-11-28T15:37:57.281Z,6.11
2022-11-28T15:40:38.015Z,5.90
2022-11-28T15:43:30.499Z,6.08
2022-11-28T15:46:03.901Z,5.87
2022-11-28T15:49:21.927Z,5.71
2022-11-28T15:51:59.621Z,5.48
2022-11-28T15:54:40.828Z,5.53
2022-11-28T15:57:23.888Z,5.43
2022-11-28T15:59:50.552Z,5.19
2022-11-28T16:02:36.484Z,5.37
2022-11-28T16:05:11.019Z,5.16
2022-11-28T16:07:42.526Z,5.16
2022-11-28T16:10:33.141Z,5.14
2022-11-28T16:13:10.605Z,5.05
2022-11-28T16:15:49.860Z,4.74
2022-11-28T16:18:29.086Z,5.08
2022-11-28T16:21:12.910Z,5.01
2022-11-28T16:23:43.474Z,4.83
2022-11-28T16:26:25.614Z,5.06
2022-11-28T16:29:14.683Z,5.08
2022-11-28T16:31:43.949Z,4.94
2022-11-28T16:34:14.886Z,5.11
2022-11-28T16:36:47.950Z,4.82
2022-11-28T16:39:17.697Z,4.56
2022-11-28T16:42:17.091Z,5.00
2022-11-28T16:44:44.838Z,4.73
2022-11-28T16:47:30.176Z,4.84
2022-11-28T16:50:17.886Z,4.92
2022-11-28T16:52:52.507Z,5.10
2022-11-28T16:55:32.221Z,5.01
2022-11-28T16:58:20.617Z,4.93
2022-11-28T17:00:59.752Z,4.80
2022-11-28T17:03:53.646Z,4.83
2022-11-28T17:06:33.765Z,4.76
2022-11-28T17:09:01.626Z,4.73
2022-11-28T17:11:35.065Z,4.66
2022-11-28T17:14:10.158Z,4.60
2022-11-28T17:16:47.057Z,4.63
2022-11-28T17:19:19.794Z,4.62
2022-11-28T17:21:51.992Z,4.65
2022-11-28T17:24:26.265Z,4.82
2022-11-28T17:26:54.368Z,4.57
2022-11-28T17:29:28.533Z,4.60
2022-11-28T17:31:59.432Z,4.66
2022-11-28T17:34:31.148Z,4.77
2022-11-28T17:37:16.855Z,4.76
2022-11-28T17:40:01.950Z,4.73
2022-11-28T17:42:34.417Z,4.62
2022-11-28T17:45:00.862Z,4.74
2022-11-28T17:47:28.288Z,4.69
2022-11-28T17:49:55.452Z,4.82
2022-11-28T17:52:27.829Z,4.85
2022-11-28T17:54:58.922Z,4.96
2022-11-28T17:57:37.752Z,4.98
2022-11-28T18:00:09.039Z,4.89
2022-11-28T18:02:43.485Z,4.94
2022-11-28T18:05:18.790Z,5.01
2022-11-28T18:07:45.374Z,4.87
2022-11-28T18:10:12.341Z,4.92
2022-11-28T18:12:53.064Z,4.80
2022-11-28T18:15:28.513Z,4.85
2022-11-28T18:17:55.288Z,4.93
2022-11-28T18:20:22.107Z,4.81
2022-11-28T18:22:48.527Z,5.02
2022-11-28T18:25:15.047Z,4.96
2022-11-28T18:27:54.802Z,4.79
2022-11-28T18:30:21.253Z,4.87
2022-11-28T18:33:07.042Z,4.98
2022-11-28T18:35:33.437Z,4.82
2022-11-28T18:38:00.050Z,4.98
2022-11-28T18:40:29.625Z,4.86
2022-11-28T18:42:56.286Z,4.83
2022-11-28T18:45:22.937Z,5.00
2022-11-28T18:47:49.349Z,4.90
2022-11-28T18:50:16.899Z,5.00
2022-11-28T18:52:44.329Z,4.98
2022-11-28T18:55:10.756Z,5.10
2022-11-28T18:57:37.397Z,4.98
2022-11-28T19:00:11.713Z,5.03
2022-11-28T19:02:38.208Z,4.86
2022-11-28T19:05:05.048Z,4.72
2022-11-28T19:07:31.507Z,4.92
2022-11-28T19:09:57.920Z,4.88
2022-11-28T19:12:24.420Z,4.81
2022-11-28T19:14:52.812Z,4.90
2022-11-28T19:17:24.646Z,4.89
2022-11-28T19:19:51.752Z,4.91
2022-11-28T19:22:40.886Z,4.94
2022-11-28T19:25:08.074Z,4.88
2022-11-28T19:27:34.483Z,4.74
2022-11-28T19:30:04.007Z,4.77
2022-11-28T19:32:53.268Z,4.85
2022-11-28T19:35:39.061Z,4.84
2022-11-28T19:38:07.694Z,4.89
2022-11-28T19:40:38.102Z,4.79
2022-11-28T19:43:07.646Z,4.73
2022-11-28T19:45:40.022Z,4.77
2022-11-28T19:48:22.275Z,4.81
2022-11-28T19:50:49.842Z,4.65
2022-11-28T19:53:16.804Z,4.71
2022-11-28T19:55:44.358Z,4.92
2022-11-28T19:58:13.338Z,4.84
2022-11-28T20:00:53.856Z,4.64
2022-11-28T20:03:22.322Z,4.59
2022-11-28T20:05:55.906Z,4.55
2022-11-28T20:08:23.530Z,4.53
2022-11-28T20:11:19.786Z,4.75
2022-11-28T20:13:47.528Z,4.81
2022-11-28T20:16:34.578Z,5.06
2022-11-28T20:19:14.194Z,4.98
2022-11-28T20:21:51.421Z,4.87
2022-11-28T20:24:24.397Z,4.78
2022-11-28T20:26:51.322Z,4.88
2022-11-28T20:29:20.021Z,4.88
2022-11-28T20:31:59.654Z,4.79
2022-11-28T20:34:30.270Z,4.77
2022-11-28T20:36:59.210Z,4.70
2022-11-28T20:39:29.709Z,4.84
2022-11-28T20:42:03.752Z,4.88
2022-11-28T20:44:49.603Z,4.93
2022-11-28T20:47:18.141Z,4.79
2022-11-28T20:49:48.650Z,4.61
2022-11-28T20:52:16.155Z,4.72
2022-11-28T20:54:42.690Z,4.49
2022-11-28T20:57:25.503Z,4.64
2022-11-28T21:00:08.871Z,4.84
2022-11-28T21:02:35.370Z,4.79
2022-11-28T21:05:01.862Z,4.76
2022-11-28T21:07:34.497Z,4.81
2022-11-28T21:10:03.683Z,4.76
2022-11-28T21:12:30.067Z,4.66
2022-11-28T21:14:56.829Z,4.73
2022-11-28T21:17:23.390Z,4.76
2022-11-28T21:19:49.849Z,4.66
2022-11-28T21:22:23.399Z,4.88
2022-11-28T21:24:51.268Z,4.77
2022-11-28T21:27:19.855Z,4.91
2022-11-28T21:30:01.889Z,4.95
2022-11-28T21:32:29.321Z,4.82
2022-11-28T21:35:01.051Z,4.80
2022-11-28T21:37:31.504Z,4.69
2022-11-28T21:39:57.974Z,4.94
2022-11-28T21:42:26.458Z,4.72
2022-11-28T21:44:52.936Z,4.79
2022-11-28T21:47:19.350Z,4.82
2022-11-28T21:49:47.077Z,4.80
2022-11-28T21:52:13.541Z,4.85
2022-11-28T21:54:42.092Z,4.71
2022-11-28T21:57:08.504Z,4.72
2022-11-28T21:59:35.021Z,4.80
2022-11-28T22:02:08.570Z,4.93
2022-11-28T22:04:37.657Z,4.83
2022-11-28T22:07:05.097Z,4.91
2022-11-28T22:09:31.528Z,4.73
2022-11-28T22:11:57.941Z,4.70
2022-11-28T22:14:48.139Z,4.80
2022-11-28T22:17:14.652Z,4.77
2022-11-28T22:19:41.418Z,4.80
2022-11-28T22:22:14.078Z,4.82
2022-11-28T22:24:40.491Z,4.63
2022-11-28T22:27:06.907Z,4.57
2022-11-28T22:29:33.593Z,4.52
2022-11-28T22:32:00.198Z,4.65
2022-11-28T22:34:26.729Z,4.71
2022-11-28T22:37:11.503Z,4.74
2022-11-28T22:39:47.240Z,4.66
2022-11-28T22:42:13.879Z,4.65
2022-11-28T22:44:48.464Z,4.65
2022-11-28T22:47:14.933Z,4.62
2022-11-28T22:49:42.361Z,4.63
2022-11-28T22:52:12.863Z,4.62
2022-11-28T22:54:39.302Z,4.61
2022-11-28T22:57:13.746Z,4.81
2022-11-28T22:59:40.202Z,4.64
2022-11-28T23:02:24.050Z,4.70
2022-11-28T23:05:01.947Z,4.63
2022-11-28T23:07:35.763Z,4.65
2022-11-28T23:10:02.428Z,4.76
2022-11-28T23:12:28.918Z,4.68
2022-11-28T23:14:55.333Z,4.50
2022-11-28T23:17:41.096Z,4.59
2022-11-28T23:20:15.808Z,4.52
2022-11-28T23:22:44.411Z,4.62
2022-11-28T23:25:14.067Z,4.73
2022-11-28T23:27:42.521Z,4.82
2022-11-28T23:30:10.387Z,4.77
2022-11-28T23:32:59.634Z,4.85
2022-11-28T23:35:28.158Z,4.62
2022-11-28T23:37:55.646Z,4.54
2022-11-28T23:40:22.261Z,4.52
2022-11-28T23:42:49.693Z,4.45
2022-11-28T23:45:17.217Z,4.61
2022-11-28T23:47:51.763Z,4.48
2022-11-28T23:50:19.402Z,4.52
2022-11-28T23:52:45.845Z,4.67
2022-11-28T23:55:12.366Z,4.59
2022-11-28T23:57:38.761Z,4.62
